ENATENTC

Guest
Details From ENAT - ALTA
To ENTC - Tromso Langnes
Flight Number -
Tags generated
Created
Modified
Stats Distance 94 nm / 174 km
Max Altitude 4,800 ft / 1,463 m
Waypoints 3
Social Downloads 10
Likes 0
Share VATSIM

Download

Looking for another format? Having issues loading an existing format? Contact us
Advertisement - Login to hide

Notes

Basic altitude profile: - Ascent Rate: 2500ft/min - Ascent Speed: 250kts - Cruise Altitude: 35000ft - Cruise Speed: 420kts - Descent Rate: 1500ft/min - Descent Speed: 250kts Options: - Use NATs: yes - Use PACOTS: yes - Use low airways: yes - Use high airways: yes

Route

ENAT LENSA ENTC

ID Type Via Altitude (ft/m) Position (lat/lon) Dist (leg/tot) Name
O ENAT APT - 0 / 0 69.97735 / 23.36543 - / 0 nm ALTA
LENSA FIX - 4,800 / 1,463 69.73306 / 20.00000 71 / 71 nm
O ENTC APT - 0 / 0 69.68287 / 18.91936 22 / 93 nm Tromso Langnes

Altitude Profile

Advertisement - Login to hide

ENAT

Details ICAO ENAT (ALF)
Name ALTA
Region Norway
Timezone Europe/Oslo (UTC+2.0)
Stats Elevation 8 ft / 2 m (AMSL)
Location 69.977500° 23.364600°
Runways 1
Magnetic Variation 11.750° E

METAR

ENAT 250450Z 00000KT CAVOK 06/01 Q1026 RMK WIND 700FT 16011KT

Decode

TAF

Not found

Departure Runways

ID Width Length Bearing (true/mag) Surface Threshold Overrun Markings Lighting
12 151 ft / 46 m 7,399 ft / 2,255 m 121.16° / 109.41° ASPHALT 909 ft / 277 m 0 ft / 0 m PREC-APP CENTERLINE EDGE THRESHOLD MALSF
30 151 ft / 46 m 7,399 ft / 2,255 m 301.20° / 289.45° ASPHALT 725 ft / 221 m 0 ft / 0 m PREC-APP CENTERLINE EDGE THRESHOLD MALSF

ENTC

Details ICAO ENTC (TOS)
Name Tromso Langnes
Region Norway
Timezone Europe/Oslo (UTC+2.0)
Stats Elevation 30 ft / 9 m (AMSL)
Location 69.683300° 18.919000°
Runways 1
Magnetic Variation 9.109° E

METAR

ENTC 250520Z 24003KT CAVOK 02/02 Q1024 NOSIG RMK WIND 2600FT 18008KT

Decode

TAF

TAF ENTC 242300Z 2500/2524 02008KT 9999 FEW080 PROB30 2500/2506 3000 BR HZ BKN004

Decode

Destination Runways

ID Width Length Bearing (true/mag) Surface Threshold Overrun Markings Lighting
01 148 ft / 45 m 7,829 ft / 2,386 m 13.04° / 3.93° ASPHALT 427 ft / 130 m 0 ft / 0 m UK-PREC-APP CENTERLINE EDGE THRESHOLD MALSF
19 148 ft / 45 m 7,829 ft / 2,386 m 193.05° / 183.94° ASPHALT 1,286 ft / 392 m 495 ft / 151 m UK-PREC-APP CENTERLINE EDGE THRESHOLD MALSF

Approach Navaids

Runway Type Ident Frequency Range Bearing (true/mag) Slope Elevation
01 DME TC 110.90 MHz 18 nm / 33 km - - 56 ft / 17 m (AMSL)
01 LOC-ILS TC 110.90 MHz 18 nm / 33 km 12.08° / 2.97 ° - 56 ft / 17 m (AMSL)
01 GS TC 110.90 MHz 10 nm / 19 km 12.40° / 3.29 ° 4.00° 31 ft / 9 m (AMSL)
01 MM MM - - 12.20° / 3.09 ° - 31 ft / 9 m (AMSL)
19 MM MM - - 192.20° / 183.09 ° - 31 ft / 9 m (AMSL)
19 DME TR 109.90 MHz 18 nm / 33 km - - 36 ft / 11 m (AMSL)
19 LOC-ILS TR 109.90 MHz 18 nm / 33 km 193.28° / 184.17 ° - 36 ft / 11 m (AMSL)
19 GS TR 109.90 MHz 10 nm / 19 km 192.40° / 183.29 ° 4.00° 31 ft / 9 m (AMSL)

Popular Alternatives